sensor_id;sensor_type;location;lat;lon;timestamp;P1;durP1;ratioP1;P2;durP2;ratioP2
29816;SDS011;16805;52.956;5.906;2022-07-06T00:02:04;2.05;;;0.40;;
29816;SDS011;16805;52.956;5.906;2022-07-06T00:04:29;8.73;;;1.05;;
29816;SDS011;16805;52.956;5.906;2022-07-06T00:06:55;3.72;;;0.43;;
29816;SDS011;16805;52.956;5.906;2022-07-06T00:09:20;2.50;;;0.40;;
29816;SDS011;16805;52.956;5.906;2022-07-06T00:11:46;1.05;;;0.40;;
29816;SDS011;16805;52.956;5.906;2022-07-06T00:14:12;2.45;;;0.60;;
29816;SDS011;16805;52.956;5.906;2022-07-06T00:16:37;1.65;;;0.40;;
29816;SDS011;16805;52.956;5.906;2022-07-06T00:19:03;2.15;;;0.60;;
29816;SDS011;16805;52.956;5.906;2022-07-06T00:21:29;3.20;;;0.50;;
29816;SDS011;16805;52.956;5.906;2022-07-06T00:23:54;1.23;;;0.40;;
29816;SDS011;16805;52.956;5.906;2022-07-06T00:26:20;2.38;;;0.60;;
29816;SDS011;16805;52.956;5.906;2022-07-06T00:28:45;1.20;;;0.40;;
29816;SDS011;16805;52.956;5.906;2022-07-06T00:31:11;2.25;;;0.50;;
29816;SDS011;16805;52.956;5.906;2022-07-06T00:33:37;3.42;;;0.60;;
29816;SDS011;16805;52.956;5.906;2022-07-06T00:36:03;2.47;;;0.40;;
29816;SDS011;16805;52.956;5.906;2022-07-06T00:38:29;1.13;;;0.30;;
29816;SDS011;16805;52.956;5.906;2022-07-06T00:40:54;3.22;;;0.43;;
29816;SDS011;16805;52.956;5.906;2022-07-06T00:43:20;3.63;;;0.50;;
29816;SDS011;16805;52.956;5.906;2022-07-06T00:45:45;3.72;;;0.40;;
29816;SDS011;16805;52.956;5.906;2022-07-06T00:48:11;1.90;;;0.30;;
29816;SDS011;16805;52.956;5.906;2022-07-06T00:50:37;1.50;;;0.43;;
29816;SDS011;16805;52.956;5.906;2022-07-06T00:53:04;1.15;;;0.55;;
29816;SDS011;16805;52.956;5.906;2022-07-06T00:55:31;1.77;;;1.02;;
29816;SDS011;16805;52.956;5.906;2022-07-06T00:57:59;1.30;;;0.30;;
29816;SDS011;16805;52.956;5.906;2022-07-06T01:00:27;1.02;;;0.28;;
29816;SDS011;16805;52.956;5.906;2022-07-06T01:02:53;2.15;;;1.13;;
29816;SDS011;16805;52.956;5.906;2022-07-06T01:05:20;2.13;;;0.40;;
29816;SDS011;16805;52.956;5.906;2022-07-06T01:07:47;1.30;;;0.50;;
29816;SDS011;16805;52.956;5.906;2022-07-06T01:10:14;2.70;;;0.40;;
29816;SDS011;16805;52.956;5.906;2022-07-06T01:12:42;2.85;;;0.30;;
29816;SDS011;16805;52.956;5.906;2022-07-06T01:15:12;2.88;;;0.32;;
29816;SDS011;16805;52.956;5.906;2022-07-06T01:17:41;3.63;;;0.28;;
29816;SDS011;16805;52.956;5.906;2022-07-06T01:20:26;2.15;;;0.30;;
29816;SDS011;16805;52.956;5.906;2022-07-06T01:22:54;1.63;;;0.40;;
29816;SDS011;16805;52.956;5.906;2022-07-06T01:25:21;4.10;;;0.30;;
29816;SDS011;16805;52.956;5.906;2022-07-06T01:27:47;2.67;;;0.63;;
29816;SDS011;16805;52.956;5.906;2022-07-06T01:30:15;1.98;;;0.20;;
29816;SDS011;16805;52.956;5.906;2022-07-06T01:32:42;1.92;;;0.30;;
29816;SDS011;16805;52.956;5.906;2022-07-06T01:35:10;1.70;;;0.50;;
29816;SDS011;16805;52.956;5.906;2022-07-06T01:37:37;2.22;;;0.30;;
29816;SDS011;16805;52.956;5.906;2022-07-06T01:40:04;1.30;;;0.20;;
29816;SDS011;16805;52.956;5.906;2022-07-06T01:42:31;2.92;;;0.35;;
29816;SDS011;16805;52.956;5.906;2022-07-06T01:44:57;1.30;;;0.25;;
29816;SDS011;16805;52.956;5.906;2022-07-06T01:47:22;1.55;;;0.52;;
29816;SDS011;16805;52.956;5.906;2022-07-06T01:49:48;4.43;;;0.45;;
29816;SDS011;16805;52.956;5.906;2022-07-06T01:52:14;2.78;;;0.40;;
29816;SDS011;16805;52.956;5.906;2022-07-06T01:54:40;1.40;;;0.20;;
29816;SDS011;16805;52.956;5.906;2022-07-06T01:57:05;0.95;;;0.20;;
29816;SDS011;16805;52.956;5.906;2022-07-06T01:59:31;2.10;;;0.30;;
29816;SDS011;16805;52.956;5.906;2022-07-06T02:01:57;2.50;;;0.20;;
29816;SDS011;16805;52.956;5.906;2022-07-06T02:04:22;2.03;;;0.40;;
29816;SDS011;16805;52.956;5.906;2022-07-06T02:06:48;0.90;;;0.20;;
29816;SDS011;16805;52.956;5.906;2022-07-06T02:09:14;0.98;;;0.30;;
29816;SDS011;16805;52.956;5.906;2022-07-06T02:11:40;5.88;;;0.38;;
29816;SDS011;16805;52.956;5.906;2022-07-06T02:14:06;1.55;;;0.38;;
29816;SDS011;16805;52.956;5.906;2022-07-06T02:16:32;2.17;;;0.35;;
29816;SDS011;16805;52.956;5.906;2022-07-06T02:18:57;4.05;;;0.40;;
29816;SDS011;16805;52.956;5.906;2022-07-06T02:21:23;3.13;;;0.30;;
29816;SDS011;16805;52.956;5.906;2022-07-06T02:23:48;1.38;;;0.25;;
29816;SDS011;16805;52.956;5.906;2022-07-06T02:26:14;2.90;;;0.30;;
29816;SDS011;16805;52.956;5.906;2022-07-06T02:28:40;1.55;;;0.32;;
29816;SDS011;16805;52.956;5.906;2022-07-06T02:31:05;6.38;;;0.50;;
29816;SDS011;16805;52.956;5.906;2022-07-06T02:33:31;4.05;;;0.40;;
29816;SDS011;16805;52.956;5.906;2022-07-06T02:35:56;2.63;;;0.32;;
29816;SDS011;16805;52.956;5.906;2022-07-06T02:38:22;1.65;;;0.60;;
29816;SDS011;16805;52.956;5.906;2022-07-06T02:40:48;1.63;;;0.30;;
29816;SDS011;16805;52.956;5.906;2022-07-06T02:43:13;3.03;;;0.40;;
29816;SDS011;16805;52.956;5.906;2022-07-06T02:45:39;1.58;;;0.38;;
29816;SDS011;16805;52.956;5.906;2022-07-06T02:48:05;1.00;;;0.28;;
29816;SDS011;16805;52.956;5.906;2022-07-06T02:50:31;2.03;;;0.43;;
29816;SDS011;16805;52.956;5.906;2022-07-06T02:52:56;1.75;;;0.40;;
29816;SDS011;16805;52.956;5.906;2022-07-06T02:55:23;2.17;;;1.50;;
29816;SDS011;16805;52.956;5.906;2022-07-06T02:57:49;7.10;;;1.92;;
29816;SDS011;16805;52.956;5.906;2022-07-06T03:00:15;4.93;;;3.13;;
29816;SDS011;16805;52.956;5.906;2022-07-06T03:02:41;5.00;;;1.90;;
29816;SDS011;16805;52.956;5.906;2022-07-06T03:05:07;1.85;;;1.30;;
29816;SDS011;16805;52.956;5.906;2022-07-06T03:07:32;3.92;;;2.45;;
29816;SDS011;16805;52.956;5.906;2022-07-06T03:09:58;4.57;;;2.60;;
29816;SDS011;16805;52.956;5.906;2022-07-06T03:12:24;4.60;;;2.80;;
29816;SDS011;16805;52.956;5.906;2022-07-06T03:14:49;3.22;;;1.85;;
29816;SDS011;16805;52.956;5.906;2022-07-06T03:17:15;2.78;;;1.17;;
29816;SDS011;16805;52.956;5.906;2022-07-06T03:19:41;2.53;;;0.70;;
29816;SDS011;16805;52.956;5.906;2022-07-06T03:22:06;1.33;;;0.50;;
29816;SDS011;16805;52.956;5.906;2022-07-06T03:24:32;1.95;;;0.50;;
29816;SDS011;16805;52.956;5.906;2022-07-06T03:26:57;1.80;;;0.47;;
29816;SDS011;16805;52.956;5.906;2022-07-06T03:29:23;2.88;;;0.70;;
29816;SDS011;16805;52.956;5.906;2022-07-06T03:31:48;4.45;;;0.88;;
29816;SDS011;16805;52.956;5.906;2022-07-06T03:34:14;1.02;;;0.55;;
29816;SDS011;16805;52.956;5.906;2022-07-06T03:36:40;1.48;;;0.30;;
29816;SDS011;16805;52.956;5.906;2022-07-06T03:39:05;1.45;;;0.43;;
29816;SDS011;16805;52.956;5.906;2022-07-06T03:41:31;0.85;;;0.25;;
29816;SDS011;16805;52.956;5.906;2022-07-06T03:43:57;2.80;;;0.40;;
29816;SDS011;16805;52.956;5.906;2022-07-06T03:46:23;2.17;;;0.35;;
29816;SDS011;16805;52.956;5.906;2022-07-06T03:48:49;2.13;;;0.30;;
29816;SDS011;16805;52.956;5.906;2022-07-06T03:51:15;0.95;;;0.30;;
29816;SDS011;16805;52.956;5.906;2022-07-06T03:53:40;2.00;;;0.30;;
29816;SDS011;16805;52.956;5.906;2022-07-06T03:56:06;3.78;;;0.40;;
29816;SDS011;16805;52.956;5.906;2022-07-06T03:58:50;4.53;;;0.50;;
29816;SDS011;16805;52.956;5.906;2022-07-06T04:01:16;3.65;;;0.43;;
29816;SDS011;16805;52.956;5.906;2022-07-06T04:03:41;5.15;;;0.45;;
29816;SDS011;16805;52.956;5.906;2022-07-06T04:06:07;3.90;;;0.60;;
29816;SDS011;16805;52.956;5.906;2022-07-06T04:08:33;3.20;;;0.45;;
29816;SDS011;16805;52.956;5.906;2022-07-06T04:10:58;1.13;;;0.30;;
29816;SDS011;16805;52.956;5.906;2022-07-06T04:13:24;1.80;;;0.40;;
29816;SDS011;16805;52.956;5.906;2022-07-06T04:15:53;1.15;;;0.32;;
29816;SDS011;16805;52.956;5.906;2022-07-06T04:18:18;2.00;;;0.25;;
29816;SDS011;16805;52.956;5.906;2022-07-06T04:20:44;1.95;;;0.20;;
29816;SDS011;16805;52.956;5.906;2022-07-06T04:23:09;2.47;;;0.40;;
29816;SDS011;16805;52.956;5.906;2022-07-06T04:25:35;4.20;;;0.38;;
29816;SDS011;16805;52.956;5.906;2022-07-06T04:28:01;0.80;;;0.20;;
29816;SDS011;16805;52.956;5.906;2022-07-06T04:30:26;3.05;;;0.30;;
29816;SDS011;16805;52.956;5.906;2022-07-06T04:32:52;1.90;;;0.28;;
29816;SDS011;16805;52.956;5.906;2022-07-06T04:35:18;6.40;;;0.45;;
29816;SDS011;16805;52.956;5.906;2022-07-06T04:37:43;1.23;;;0.13;;
29816;SDS011;16805;52.956;5.906;2022-07-06T04:40:11;1.25;;;0.15;;
29816;SDS011;16805;52.956;5.906;2022-07-06T04:42:37;1.40;;;0.28;;
29816;SDS011;16805;52.956;5.906;2022-07-06T04:45:03;3.10;;;0.30;;
29816;SDS011;16805;52.956;5.906;2022-07-06T04:47:30;0.93;;;0.30;;
29816;SDS011;16805;52.956;5.906;2022-07-06T04:50:14;0.80;;;0.30;;
29816;SDS011;16805;52.956;5.906;2022-07-06T04:52:58;2.60;;;0.20;;
29816;SDS011;16805;52.956;5.906;2022-07-06T04:55:24;2.85;;;0.30;;
29816;SDS011;16805;52.956;5.906;2022-07-06T04:57:49;1.98;;;0.32;;
29816;SDS011;16805;52.956;5.906;2022-07-06T05:00:16;1.45;;;0.20;;
29816;SDS011;16805;52.956;5.906;2022-07-06T05:02:42;1.15;;;0.35;;
29816;SDS011;16805;52.956;5.906;2022-07-06T05:05:08;1.38;;;0.45;;
29816;SDS011;16805;52.956;5.906;2022-07-06T05:07:34;2.75;;;0.25;;
29816;SDS011;16805;52.956;5.906;2022-07-06T05:10:04;0.93;;;0.20;;
29816;SDS011;16805;52.956;5.906;2022-07-06T05:12:31;4.68;;;0.40;;
29816;SDS011;16805;52.956;5.906;2022-07-06T05:14:57;1.77;;;0.73;;
29816;SDS011;16805;52.956;5.906;2022-07-06T05:17:23;0.52;;;0.20;;
29816;SDS011;16805;52.956;5.906;2022-07-06T05:19:48;2.33;;;0.40;;
29816;SDS011;16805;52.956;5.906;2022-07-06T05:22:14;2.72;;;0.30;;
29816;SDS011;16805;52.956;5.906;2022-07-06T05:24:40;0.95;;;0.30;;
29816;SDS011;16805;52.956;5.906;2022-07-06T05:27:05;4.05;;;0.40;;
29816;SDS011;16805;52.956;5.906;2022-07-06T05:29:31;2.63;;;0.35;;
29816;SDS011;16805;52.956;5.906;2022-07-06T05:31:56;1.02;;;0.20;;
29816;SDS011;16805;52.956;5.906;2022-07-06T05:34:22;1.40;;;0.28;;
29816;SDS011;16805;52.956;5.906;2022-07-06T05:36:47;1.08;;;0.30;;
29816;SDS011;16805;52.956;5.906;2022-07-06T05:39:13;3.45;;;0.20;;
29816;SDS011;16805;52.956;5.906;2022-07-06T05:41:44;0.52;;;0.20;;
29816;SDS011;16805;52.956;5.906;2022-07-06T05:44:09;0.55;;;0.28;;
29816;SDS011;16805;52.956;5.906;2022-07-06T05:46:35;1.55;;;0.28;;
29816;SDS011;16805;52.956;5.906;2022-07-06T05:49:00;2.17;;;0.38;;
29816;SDS011;16805;52.956;5.906;2022-07-06T05:51:44;1.65;;;0.30;;
29816;SDS011;16805;52.956;5.906;2022-07-06T05:54:10;0.60;;;0.20;;
29816;SDS011;16805;52.956;5.906;2022-07-06T05:56:36;0.75;;;0.30;;
29816;SDS011;16805;52.956;5.906;2022-07-06T05:59:01;1.48;;;0.20;;
29816;SDS011;16805;52.956;5.906;2022-07-06T06:01:27;1.40;;;0.50;;
29816;SDS011;16805;52.956;5.906;2022-07-06T06:04:11;3.00;;;0.47;;
29816;SDS011;16805;52.956;5.906;2022-07-06T06:06:37;1.27;;;0.20;;
29816;SDS011;16805;52.956;5.906;2022-07-06T06:09:02;3.60;;;0.35;;
29816;SDS011;16805;52.956;5.906;2022-07-06T06:11:28;2.42;;;0.22;;
29816;SDS011;16805;52.956;5.906;2022-07-06T06:13:53;1.90;;;0.30;;
29816;SDS011;16805;52.956;5.906;2022-07-06T06:16:19;1.33;;;0.32;;
29816;SDS011;16805;52.956;5.906;2022-07-06T06:18:45;1.30;;;0.20;;
29816;SDS011;16805;52.956;5.906;2022-07-06T06:21:10;1.60;;;0.30;;
29816;SDS011;16805;52.956;5.906;2022-07-06T06:23:36;2.13;;;0.32;;
29816;SDS011;16805;52.956;5.906;2022-07-06T06:26:02;4.60;;;0.55;;
29816;SDS011;16805;52.956;5.906;2022-07-06T06:28:27;1.95;;;0.22;;
29816;SDS011;16805;52.956;5.906;2022-07-06T06:30:53;2.40;;;0.28;;
29816;SDS011;16805;52.956;5.906;2022-07-06T06:33:38;2.83;;;0.40;;
29816;SDS011;16805;52.956;5.906;2022-07-06T06:36:03;2.78;;;0.22;;
29816;SDS011;16805;52.956;5.906;2022-07-06T06:38:29;3.30;;;0.20;;
29816;SDS011;16805;52.956;5.906;2022-07-06T06:41:13;2.03;;;0.17;;
29816;SDS011;16805;52.956;5.906;2022-07-06T06:43:39;2.83;;;0.30;;
29816;SDS011;16805;52.956;5.906;2022-07-06T06:46:05;0.90;;;0.40;;
29816;SDS011;16805;52.956;5.906;2022-07-06T06:48:30;0.95;;;0.20;;
29816;SDS011;16805;52.956;5.906;2022-07-06T06:50:56;1.75;;;0.47;;
29816;SDS011;16805;52.956;5.906;2022-07-06T06:53:24;2.47;;;0.50;;
29816;SDS011;16805;52.956;5.906;2022-07-06T06:55:50;0.98;;;0.30;;
29816;SDS011;16805;52.956;5.906;2022-07-06T06:58:15;2.17;;;0.38;;
29816;SDS011;16805;52.956;5.906;2022-07-06T07:00:41;1.25;;;0.20;;
29816;SDS011;16805;52.956;5.906;2022-07-06T07:03:08;1.67;;;0.20;;
29816;SDS011;16805;52.956;5.906;2022-07-06T07:05:35;1.10;;;0.20;;
29816;SDS011;16805;52.956;5.906;2022-07-06T07:08:00;1.83;;;0.32;;
29816;SDS011;16805;52.956;5.906;2022-07-06T07:10:26;3.42;;;0.30;;
29816;SDS011;16805;52.956;5.906;2022-07-06T07:12:52;2.78;;;0.40;;
29816;SDS011;16805;52.956;5.906;2022-07-06T07:15:18;1.75;;;0.20;;
29816;SDS011;16805;52.956;5.906;2022-07-06T07:17:45;2.20;;;0.32;;
29816;SDS011;16805;52.956;5.906;2022-07-06T07:20:11;1.90;;;0.30;;
29816;SDS011;16805;52.956;5.906;2022-07-06T07:22:37;7.43;;;0.68;;
29816;SDS011;16805;52.956;5.906;2022-07-06T07:25:03;1.98;;;0.10;;
29816;SDS011;16805;52.956;5.906;2022-07-06T07:27:30;7.97;;;0.30;;
29816;SDS011;16805;52.956;5.906;2022-07-06T07:29:55;1.73;;;0.25;;
29816;SDS011;16805;52.956;5.906;2022-07-06T07:32:21;0.32;;;0.20;;
29816;SDS011;16805;52.956;5.906;2022-07-06T07:34:47;2.28;;;0.20;;
29816;SDS011;16805;52.956;5.906;2022-07-06T07:37:12;1.13;;;0.20;;
29816;SDS011;16805;52.956;5.906;2022-07-06T07:39:38;0.60;;;0.20;;
29816;SDS011;16805;52.956;5.906;2022-07-06T07:42:04;3.38;;;0.30;;
29816;SDS011;16805;52.956;5.906;2022-07-06T07:44:29;1.05;;;0.22;;
29816;SDS011;16805;52.956;5.906;2022-07-06T07:46:55;1.25;;;0.10;;
29816;SDS011;16805;52.956;5.906;2022-07-06T07:49:21;1.33;;;0.20;;
29816;SDS011;16805;52.956;5.906;2022-07-06T07:51:47;0.65;;;0.17;;
29816;SDS011;16805;52.956;5.906;2022-07-06T07:54:13;0.93;;;0.20;;
29816;SDS011;16805;52.956;5.906;2022-07-06T07:56:39;1.08;;;0.10;;
29816;SDS011;16805;52.956;5.906;2022-07-06T07:59:05;1.98;;;0.30;;
29816;SDS011;16805;52.956;5.906;2022-07-06T08:01:32;2.50;;;0.20;;
29816;SDS011;16805;52.956;5.906;2022-07-06T08:03:58;5.60;;;0.47;;
29816;SDS011;16805;52.956;5.906;2022-07-06T08:06:43;4.40;;;0.28;;
29816;SDS011;16805;52.956;5.906;2022-07-06T08:09:09;3.60;;;0.40;;
29816;SDS011;16805;52.956;5.906;2022-07-06T08:11:34;3.15;;;0.30;;
29816;SDS011;16805;52.956;5.906;2022-07-06T08:14:01;2.80;;;0.30;;
29816;SDS011;16805;52.956;5.906;2022-07-06T08:16:27;0.60;;;0.20;;
29816;SDS011;16805;52.956;5.906;2022-07-06T08:18:53;1.48;;;0.40;;
29816;SDS011;16805;52.956;5.906;2022-07-06T08:21:18;3.17;;;0.30;;
29816;SDS011;16805;52.956;5.906;2022-07-06T08:23:44;3.92;;;0.30;;
29816;SDS011;16805;52.956;5.906;2022-07-06T08:26:10;1.42;;;0.20;;
29816;SDS011;16805;52.956;5.906;2022-07-06T08:28:36;1.50;;;0.22;;
29816;SDS011;16805;52.956;5.906;2022-07-06T08:31:01;3.47;;;0.50;;
29816;SDS011;16805;52.956;5.906;2022-07-06T08:33:27;2.00;;;0.43;;
29816;SDS011;16805;52.956;5.906;2022-07-06T08:35:53;2.78;;;0.30;;
29816;SDS011;16805;52.956;5.906;2022-07-06T08:38:18;0.80;;;0.10;;
29816;SDS011;16805;52.956;5.906;2022-07-06T08:40:45;1.17;;;0.10;;
29816;SDS011;16805;52.956;5.906;2022-07-06T08:43:13;0.65;;;0.10;;
29816;SDS011;16805;52.956;5.906;2022-07-06T08:45:40;0.17;;;0.10;;
29816;SDS011;16805;52.956;5.906;2022-07-06T08:48:09;0.93;;;0.20;;
29816;SDS011;16805;52.956;5.906;2022-07-06T08:50:35;0.45;;;0.13;;
29816;SDS011;16805;52.956;5.906;2022-07-06T08:53:01;0.65;;;0.20;;
29816;SDS011;16805;52.956;5.906;2022-07-06T08:55:27;2.58;;;0.25;;
29816;SDS011;16805;52.956;5.906;2022-07-06T08:57:57;2.53;;;0.20;;
29816;SDS011;16805;52.956;5.906;2022-07-06T09:00:23;1.65;;;0.20;;
29816;SDS011;16805;52.956;5.906;2022-07-06T09:02:50;3.45;;;0.30;;
29816;SDS011;16805;52.956;5.906;2022-07-06T09:05:18;0.70;;;0.28;;
29816;SDS011;16805;52.956;5.906;2022-07-06T09:07:50;3.88;;;0.25;;
29816;SDS011;16805;52.956;5.906;2022-07-06T09:10:18;2.13;;;0.30;;
29816;SDS011;16805;52.956;5.906;2022-07-06T09:12:49;1.23;;;0.20;;
29816;SDS011;16805;52.956;5.906;2022-07-06T09:15:15;1.10;;;0.30;;
29816;SDS011;16805;52.956;5.906;2022-07-06T09:17:42;0.85;;;0.20;;
29816;SDS011;16805;52.956;5.906;2022-07-06T09:20:09;1.88;;;0.20;;
29816;SDS011;16805;52.956;5.906;2022-07-06T09:22:35;1.60;;;0.28;;
29816;SDS011;16805;52.956;5.906;2022-07-06T09:25:05;1.55;;;0.20;;
29816;SDS011;16805;52.956;5.906;2022-07-06T09:27:41;1.75;;;0.35;;
29816;SDS011;16805;52.956;5.906;2022-07-06T09:30:08;1.52;;;0.28;;
29816;SDS011;16805;52.956;5.906;2022-07-06T09:32:39;2.35;;;1.23;;
29816;SDS011;16805;52.956;5.906;2022-07-06T09:35:05;2.25;;;0.50;;
29816;SDS011;16805;52.956;5.906;2022-07-06T09:37:32;1.60;;;0.17;;
29816;SDS011;16805;52.956;5.906;2022-07-06T09:39:57;3.30;;;0.65;;
29816;SDS011;16805;52.956;5.906;2022-07-06T09:42:26;2.03;;;1.25;;
29816;SDS011;16805;52.956;5.906;2022-07-06T09:44:52;1.45;;;0.20;;
29816;SDS011;16805;52.956;5.906;2022-07-06T09:47:19;0.45;;;0.10;;
29816;SDS011;16805;52.956;5.906;2022-07-06T09:49:45;1.10;;;0.15;;
29816;SDS011;16805;52.956;5.906;2022-07-06T09:52:12;1.13;;;0.20;;
29816;SDS011;16805;52.956;5.906;2022-07-06T09:54:39;1.25;;;0.30;;
29816;SDS011;16805;52.956;5.906;2022-07-06T09:57:05;0.85;;;0.10;;
29816;SDS011;16805;52.956;5.906;2022-07-06T09:59:32;0.45;;;0.20;;
29816;SDS011;16805;52.956;5.906;2022-07-06T10:01:59;1.10;;;0.20;;
29816;SDS011;16805;52.956;5.906;2022-07-06T10:04:32;1.80;;;0.20;;
29816;SDS011;16805;52.956;5.906;2022-07-06T10:06:58;1.85;;;0.40;;
29816;SDS011;16805;52.956;5.906;2022-07-06T10:09:26;1.45;;;0.10;;
29816;SDS011;16805;52.956;5.906;2022-07-06T10:11:53;0.50;;;0.15;;
29816;SDS011;16805;52.956;5.906;2022-07-06T10:14:24;0.95;;;0.10;;
29816;SDS011;16805;52.956;5.906;2022-07-06T10:19:20;5.97;;;0.30;;
29816;SDS011;16805;52.956;5.906;2022-07-06T10:21:46;1.95;;;0.20;;
29816;SDS011;16805;52.956;5.906;2022-07-06T10:24:12;2.55;;;0.20;;
29816;SDS011;16805;52.956;5.906;2022-07-06T10:26:39;3.95;;;0.20;;
29816;SDS011;16805;52.956;5.906;2022-07-06T10:29:06;1.15;;;0.20;;
29816;SDS011;16805;52.956;5.906;2022-07-06T10:31:32;1.17;;;0.20;;
29816;SDS011;16805;52.956;5.906;2022-07-06T10:34:00;0.20;;;0.10;;
29816;SDS011;16805;52.956;5.906;2022-07-06T10:36:27;0.98;;;0.22;;
29816;SDS011;16805;52.956;5.906;2022-07-06T10:38:54;1.48;;;0.20;;
29816;SDS011;16805;52.956;5.906;2022-07-06T10:41:32;0.75;;;0.20;;
29816;SDS011;16805;52.956;5.906;2022-07-06T10:44:16;0.65;;;0.17;;
29816;SDS011;16805;52.956;5.906;2022-07-06T10:47:16;0.75;;;0.20;;
29816;SDS011;16805;52.956;5.906;2022-07-06T10:49:35;1.17;;;0.25;;
29816;SDS011;16805;52.956;5.906;2022-07-06T10:52:16;1.80;;;0.35;;
29816;SDS011;16805;52.956;5.906;2022-07-06T10:54:42;1.15;;;0.10;;
29816;SDS011;16805;52.956;5.906;2022-07-06T10:57:08;3.92;;;0.30;;
29816;SDS011;16805;52.956;5.906;2022-07-06T10:59:35;0.65;;;0.20;;
29816;SDS011;16805;52.956;5.906;2022-07-06T11:02:17;1.42;;;0.20;;
29816;SDS011;16805;52.956;5.906;2022-07-06T11:04:47;2.20;;;0.13;;
29816;SDS011;16805;52.956;5.906;2022-07-06T11:07:16;0.88;;;0.20;;
29816;SDS011;16805;52.956;5.906;2022-07-06T11:09:56;1.77;;;0.30;;
29816;SDS011;16805;52.956;5.906;2022-07-06T11:12:23;0.77;;;0.15;;
29816;SDS011;16805;52.956;5.906;2022-07-06T11:14:49;0.55;;;0.20;;
29816;SDS011;16805;52.956;5.906;2022-07-06T11:17:16;1.48;;;0.30;;
29816;SDS011;16805;52.956;5.906;2022-07-06T11:19:49;2.05;;;0.20;;
29816;SDS011;16805;52.956;5.906;2022-07-06T11:22:23;1.98;;;0.20;;
29816;SDS011;16805;52.956;5.906;2022-07-06T11:24:50;4.05;;;0.20;;
29816;SDS011;16805;52.956;5.906;2022-07-06T11:27:22;2.80;;;0.20;;
29816;SDS011;16805;52.956;5.906;2022-07-06T11:29:48;0.95;;;0.20;;
29816;SDS011;16805;52.956;5.906;2022-07-06T11:32:13;4.85;;;1.70;;
29816;SDS011;16805;52.956;5.906;2022-07-06T11:34:42;1.60;;;0.25;;
29816;SDS011;16805;52.956;5.906;2022-07-06T11:37:10;1.25;;;0.25;;
29816;SDS011;16805;52.956;5.906;2022-07-06T11:39:41;1.08;;;0.30;;
29816;SDS011;16805;52.956;5.906;2022-07-06T11:42:11;2.15;;;0.30;;
29816;SDS011;16805;52.956;5.906;2022-07-06T11:44:39;3.10;;;0.25;;
29816;SDS011;16805;52.956;5.906;2022-07-06T11:47:06;0.40;;;0.20;;
29816;SDS011;16805;52.956;5.906;2022-07-06T11:49:33;1.27;;;0.20;;
29816;SDS011;16805;52.956;5.906;2022-07-06T11:52:00;0.40;;;0.20;;
29816;SDS011;16805;52.956;5.906;2022-07-06T11:54:31;1.15;;;0.20;;
29816;SDS011;16805;52.956;5.906;2022-07-06T11:56:57;1.35;;;0.25;;
29816;SDS011;16805;52.956;5.906;2022-07-06T11:59:28;1.48;;;0.20;;
29816;SDS011;16805;52.956;5.906;2022-07-06T12:02:00;1.08;;;0.10;;
29816;SDS011;16805;52.956;5.906;2022-07-06T12:04:31;1.02;;;0.20;;
29816;SDS011;16805;52.956;5.906;2022-07-06T12:07:08;1.00;;;0.20;;
29816;SDS011;16805;52.956;5.906;2022-07-06T12:09:37;0.95;;;0.20;;
29816;SDS011;16805;52.956;5.906;2022-07-06T12:12:03;0.75;;;0.20;;
29816;SDS011;16805;52.956;5.906;2022-07-06T12:14:31;0.75;;;0.20;;
29816;SDS011;16805;52.956;5.906;2022-07-06T12:17:02;1.88;;;0.20;;
29816;SDS011;16805;52.956;5.906;2022-07-06T12:19:52;1.02;;;0.17;;
29816;SDS011;16805;52.956;5.906;2022-07-06T12:22:24;1.23;;;0.20;;
29816;SDS011;16805;52.956;5.906;2022-07-06T12:27:17;1.10;;;0.30;;
29816;SDS011;16805;52.956;5.906;2022-07-06T12:29:44;1.80;;;0.20;;
29816;SDS011;16805;52.956;5.906;2022-07-06T12:32:14;0.30;;;0.20;;
29816;SDS011;16805;52.956;5.906;2022-07-06T12:34:41;1.93;;;0.20;;
29816;SDS011;16805;52.956;5.906;2022-07-06T12:37:08;1.80;;;0.30;;
29816;SDS011;16805;52.956;5.906;2022-07-06T12:39:53;0.25;;;0.15;;
29816;SDS011;16805;52.956;5.906;2022-07-06T12:42:19;0.93;;;0.20;;
29816;SDS011;16805;52.956;5.906;2022-07-06T12:44:46;0.45;;;0.25;;
29816;SDS011;16805;52.956;5.906;2022-07-06T12:47:11;0.65;;;0.20;;
29816;SDS011;16805;52.956;5.906;2022-07-06T12:49:38;0.88;;;0.20;;
29816;SDS011;16805;52.956;5.906;2022-07-06T12:59:41;2.92;;;0.38;;
29816;SDS011;16805;52.956;5.906;2022-07-06T13:04:48;2.67;;;0.90;;
29816;SDS011;16805;52.956;5.906;2022-07-06T13:07:20;1.70;;;0.35;;
29816;SDS011;16805;52.956;5.906;2022-07-06T13:09:45;2.03;;;0.30;;
29816;SDS011;16805;52.956;5.906;2022-07-06T13:12:11;0.80;;;0.22;;
29816;SDS011;16805;52.956;5.906;2022-07-06T13:14:36;1.10;;;0.30;;
29816;SDS011;16805;52.956;5.906;2022-07-06T13:17:02;4.53;;;0.30;;
29816;SDS011;16805;52.956;5.906;2022-07-06T13:19:28;0.93;;;0.20;;
29816;SDS011;16805;52.956;5.906;2022-07-06T13:21:54;1.40;;;0.22;;
29816;SDS011;16805;52.956;5.906;2022-07-06T13:24:20;1.00;;;0.40;;
29816;SDS011;16805;52.956;5.906;2022-07-06T13:26:45;2.22;;;0.43;;
29816;SDS011;16805;52.956;5.906;2022-07-06T13:29:11;2.10;;;0.30;;
29816;SDS011;16805;52.956;5.906;2022-07-06T13:31:37;1.98;;;0.30;;
29816;SDS011;16805;52.956;5.906;2022-07-06T13:34:03;0.68;;;0.20;;
29816;SDS011;16805;52.956;5.906;2022-07-06T13:36:29;0.60;;;0.28;;
29816;SDS011;16805;52.956;5.906;2022-07-06T13:38:55;2.70;;;0.30;;
29816;SDS011;16805;52.956;5.906;2022-07-06T13:41:20;3.72;;;0.73;;
29816;SDS011;16805;52.956;5.906;2022-07-06T13:43:46;0.95;;;0.30;;
29816;SDS011;16805;52.956;5.906;2022-07-06T13:46:12;1.10;;;0.30;;
29816;SDS011;16805;52.956;5.906;2022-07-06T13:48:37;2.85;;;0.40;;
29816;SDS011;16805;52.956;5.906;2022-07-06T13:51:03;1.00;;;0.40;;
29816;SDS011;16805;52.956;5.906;2022-07-06T13:53:29;2.92;;;0.30;;
29816;SDS011;16805;52.956;5.906;2022-07-06T13:55:56;1.95;;;0.40;;
29816;SDS011;16805;52.956;5.906;2022-07-06T13:58:22;0.57;;;0.20;;
29816;SDS011;16805;52.956;5.906;2022-07-06T14:00:47;0.80;;;0.30;;
29816;SDS011;16805;52.956;5.906;2022-07-06T14:03:13;2.50;;;0.40;;
29816;SDS011;16805;52.956;5.906;2022-07-06T14:05:39;1.00;;;0.30;;
29816;SDS011;16805;52.956;5.906;2022-07-06T14:08:05;1.88;;;0.60;;
29816;SDS011;16805;52.956;5.906;2022-07-06T14:10:30;5.20;;;0.50;;
29816;SDS011;16805;52.956;5.906;2022-07-06T14:12:56;3.55;;;0.60;;
29816;SDS011;16805;52.956;5.906;2022-07-06T14:15:22;1.33;;;0.57;;
29816;SDS011;16805;52.956;5.906;2022-07-06T14:17:48;2.45;;;0.43;;
29816;SDS011;16805;52.956;5.906;2022-07-06T14:20:14;1.05;;;0.40;;
29816;SDS011;16805;52.956;5.906;2022-07-06T14:22:40;2.58;;;1.00;;
29816;SDS011;16805;52.956;5.906;2022-07-06T14:25:06;2.13;;;0.50;;
29816;SDS011;16805;52.956;5.906;2022-07-06T14:27:33;1.05;;;0.45;;
29816;SDS011;16805;52.956;5.906;2022-07-06T14:29:59;1.85;;;0.30;;
29816;SDS011;16805;52.956;5.906;2022-07-06T14:32:25;1.20;;;0.57;;
29816;SDS011;16805;52.956;5.906;2022-07-06T14:34:51;4.22;;;0.43;;
29816;SDS011;16805;52.956;5.906;2022-07-06T14:37:16;1.27;;;0.50;;
29816;SDS011;16805;52.956;5.906;2022-07-06T14:39:42;1.42;;;0.50;;
29816;SDS011;16805;52.956;5.906;2022-07-06T14:42:10;2.78;;;0.50;;
29816;SDS011;16805;52.956;5.906;2022-07-06T14:44:36;1.63;;;0.50;;
29816;SDS011;16805;52.956;5.906;2022-07-06T14:47:01;1.10;;;0.47;;
29816;SDS011;16805;52.956;5.906;2022-07-06T14:49:28;5.03;;;0.70;;
29816;SDS011;16805;52.956;5.906;2022-07-06T14:51:54;2.05;;;0.70;;
29816;SDS011;16805;52.956;5.906;2022-07-06T14:54:20;1.35;;;0.80;;
29816;SDS011;16805;52.956;5.906;2022-07-06T14:56:46;1.40;;;0.40;;
29816;SDS011;16805;52.956;5.906;2022-07-06T14:59:11;1.85;;;0.60;;
29816;SDS011;16805;52.956;5.906;2022-07-06T15:01:37;3.92;;;0.70;;
29816;SDS011;16805;52.956;5.906;2022-07-06T15:04:02;3.83;;;0.60;;